createdAt,value
2023-05-12T00:03:14.715Z,81.60
2023-05-12T00:06:56.661Z,82.00
2023-05-12T00:10:38.662Z,82.20
2023-05-12T00:14:20.664Z,82.40
2023-05-12T00:18:02.499Z,82.50
2023-05-12T00:21:44.667Z,82.70
2023-05-12T00:25:26.630Z,82.80
2023-05-12T00:29:08.433Z,82.80
2023-05-12T00:32:50.310Z,83.00
2023-05-12T00:36:32.272Z,83.00
2023-05-12T00:40:14.195Z,83.30
2023-05-12T00:43:56.033Z,83.40
2023-05-12T00:47:38.039Z,83.70
2023-05-12T00:51:19.949Z,83.80
2023-05-12T00:55:02.368Z,83.90
2023-05-12T00:58:44.459Z,83.80
2023-05-12T01:02:26.418Z,84.00
2023-05-12T01:06:24.015Z,84.10
2023-05-12T01:10:23.367Z,83.90
2023-05-12T01:14:05.408Z,84.00
2023-05-12T01:18:01.627Z,84.50
2023-05-12T01:21:43.543Z,84.10
2023-05-12T01:25:28.693Z,84.60
2023-05-12T01:29:11.318Z,84.90
2023-05-12T01:32:53.447Z,84.90
2023-05-12T01:36:35.310Z,85.10
2023-05-12T01:40:18.158Z,85.40
2023-05-12T01:44:00.061Z,85.60
2023-05-12T01:47:41.872Z,85.70
2023-05-12T01:51:23.744Z,85.90
2023-05-12T01:55:06.011Z,86.20
2023-05-12T01:58:47.882Z,86.30
2023-05-12T02:02:31.570Z,86.40
2023-05-12T02:06:13.571Z,86.40
2023-05-12T02:09:55.399Z,86.70
2023-05-12T02:13:37.217Z,86.90
2023-05-12T02:17:19.037Z,87.00
2023-05-12T02:21:00.885Z,87.10
2023-05-12T02:24:42.668Z,87.40
2023-05-12T02:28:24.486Z,87.50
2023-05-12T02:32:06.616Z,87.50
2023-05-12T02:35:48.592Z,87.60
2023-05-12T02:39:30.498Z,87.70
2023-05-12T02:43:12.292Z,88.00
2023-05-12T02:46:54.086Z,88.00
2023-05-12T02:50:35.883Z,88.20
2023-05-12T02:54:17.686Z,88.40
2023-05-12T02:57:59.531Z,88.60
2023-05-12T03:01:41.345Z,88.70
2023-05-12T03:05:23.197Z,89.00
2023-05-12T03:09:05.234Z,89.10
2023-05-12T03:12:47.061Z,89.20
2023-05-12T03:16:28.866Z,89.40
2023-05-12T03:20:11.138Z,89.50
2023-05-12T03:23:53.080Z,89.70
2023-05-12T03:27:34.906Z,89.90
2023-05-12T03:31:17.182Z,89.90
2023-05-12T03:34:59.015Z,89.90
2023-05-12T03:38:40.905Z,90.00
2023-05-12T03:42:24.134Z,90.00
2023-05-12T03:46:06.098Z,90.00
2023-05-12T03:49:47.920Z,90.00
2023-05-12T03:53:30.039Z,90.00
2023-05-12T03:57:12.864Z,90.10
2023-05-12T04:00:57.009Z,90.10
2023-05-12T04:04:39.020Z,90.10
2023-05-12T04:08:20.986Z,90.20
2023-05-12T04:12:03.078Z,90.20
2023-05-12T04:15:44.930Z,90.30
2023-05-12T04:19:26.732Z,90.40
2023-05-12T04:23:08.572Z,90.80
2023-05-12T04:26:50.412Z,91.20
2023-05-12T04:30:32.528Z,91.40
2023-05-12T04:34:14.426Z,91.50
2023-05-12T04:37:56.250Z,91.70
2023-05-12T04:41:38.149Z,91.80
2023-05-12T04:45:20.319Z,91.90
2023-05-12T04:49:02.304Z,92.10
2023-05-12T04:52:44.219Z,92.10
2023-05-12T04:56:26.156Z,92.20
2023-05-12T05:00:09.226Z,92.30
2023-05-12T05:03:51.420Z,92.40
2023-05-12T05:07:33.405Z,92.50
2023-05-12T05:11:15.213Z,92.60
2023-05-12T05:14:57.097Z,92.60
2023-05-12T05:18:41.969Z,92.90
2023-05-12T05:22:23.837Z,92.80
2023-05-12T05:26:05.665Z,93.00
2023-05-12T05:29:47.469Z,93.10
2023-05-12T05:33:29.347Z,93.20
2023-05-12T05:37:11.167Z,93.30
2023-05-12T05:40:54.446Z,93.40
2023-05-12T05:44:36.647Z,93.60
2023-05-12T05:48:18.703Z,93.70
2023-05-12T05:52:00.601Z,93.70
2023-05-12T05:55:42.386Z,93.80
2023-05-12T05:59:24.479Z,93.90
2023-05-12T06:03:06.361Z,94.00
2023-05-12T06:06:48.309Z,94.10
2023-05-12T06:10:30.107Z,94.20
2023-05-12T06:14:11.980Z,94.20
2023-05-12T06:17:53.788Z,94.30
2023-05-12T06:21:35.753Z,94.40
2023-05-12T06:25:17.731Z,94.50
2023-05-12T06:28:59.616Z,94.50
2023-05-12T06:32:41.687Z,94.50
2023-05-12T06:36:23.959Z,94.60
2023-05-12T06:40:06.563Z,94.50
2023-05-12T06:43:48.371Z,94.50
2023-05-12T06:47:30.222Z,94.50
2023-05-12T06:51:13.166Z,94.40
2023-05-12T06:54:55.017Z,94.40
2023-05-12T06:58:37.096Z,94.20
2023-05-12T07:02:19.046Z,93.70
2023-05-12T07:06:01.056Z,93.70
2023-05-12T07:09:43.189Z,93.30
2023-05-12T07:13:25.038Z,93.00
2023-05-12T07:17:06.967Z,92.60
2023-05-12T07:20:49.162Z,92.40
2023-05-12T07:24:31.031Z,92.10
2023-05-12T07:28:12.965Z,91.60
2023-05-12T07:31:54.856Z,90.80
2023-05-12T07:35:36.739Z,90.80
2023-05-12T07:39:23.439Z,90.60
2023-05-12T07:43:05.535Z,90.70
2023-05-12T07:46:47.389Z,90.70
2023-05-12T07:50:29.333Z,90.70
2023-05-12T07:54:11.121Z,90.60
2023-05-12T07:57:52.964Z,90.40
2023-05-12T08:01:35.307Z,90.40
2023-05-12T08:05:17.246Z,90.10
2023-05-12T08:08:59.364Z,90.00
2023-05-12T08:12:42.412Z,89.80
2023-05-12T08:16:24.276Z,89.00
2023-05-12T08:20:06.938Z,87.90
2023-05-12T08:23:48.901Z,86.30
2023-05-12T08:27:30.799Z,86.00
2023-05-12T08:31:12.725Z,85.90
2023-05-12T08:34:54.927Z,86.10
2023-05-12T08:38:36.783Z,83.90
2023-05-12T08:42:39.505Z,81.00
2023-05-12T08:46:21.819Z,80.00
2023-05-12T08:50:05.523Z,76.30
2023-05-12T08:53:49.161Z,75.90
2023-05-12T08:57:31.875Z,75.40
2023-05-12T09:01:15.007Z,75.80
2023-05-12T09:04:57.213Z,76.20
2023-05-12T09:08:40.954Z,76.70
2023-05-12T09:12:24.965Z,77.30
2023-05-12T09:16:11.508Z,77.40
2023-05-12T09:19:53.420Z,75.50
2023-05-12T09:23:35.257Z,74.50
2023-05-12T09:27:27.968Z,73.80
2023-05-12T09:31:22.762Z,74.40
2023-05-12T09:35:11.564Z,75.60
2023-05-12T09:39:01.800Z,74.90
2023-05-12T09:42:43.862Z,73.80
2023-05-12T09:46:26.201Z,73.00
2023-05-12T09:50:10.277Z,70.80
2023-05-12T09:53:52.598Z,67.60
2023-05-12T09:57:39.774Z,64.10
2023-05-12T10:01:24.496Z,62.60
2023-05-12T10:05:08.522Z,60.40
2023-05-12T10:08:58.885Z,58.80
2023-05-12T10:12:41.667Z,56.60
2023-05-12T10:16:23.898Z,54.30
2023-05-12T10:20:07.682Z,54.30
2023-05-12T10:23:51.107Z,52.70
2023-05-12T10:27:33.976Z,51.20
2023-05-12T10:31:16.476Z,50.60
2023-05-12T10:35:08.824Z,48.70
2023-05-12T10:38:51.149Z,50.00
2023-05-12T10:42:41.547Z,47.00
2023-05-12T10:46:24.448Z,48.50
2023-05-12T10:50:06.975Z,48.00
2023-05-12T10:53:54.810Z,49.00
2023-05-12T10:57:51.894Z,49.20
2023-05-12T11:01:34.794Z,51.10
2023-05-12T11:05:18.724Z,50.30
2023-05-12T11:09:01.356Z,51.80
2023-05-12T11:12:44.976Z,52.80
2023-05-12T11:16:27.022Z,53.90
2023-05-12T11:20:12.070Z,55.30
2023-05-12T11:23:54.865Z,53.50
2023-05-12T11:27:42.360Z,53.90
2023-05-12T11:31:24.766Z,52.70
2023-05-12T11:35:15.366Z,51.30
2023-05-12T11:38:57.240Z,49.40
2023-05-12T11:42:41.358Z,46.60
2023-05-12T11:46:30.377Z,47.10
2023-05-12T11:50:12.288Z,47.90
2023-05-12T11:53:54.444Z,47.80
2023-05-12T11:57:36.512Z,48.10
2023-05-12T12:01:18.337Z,49.40
2023-05-12T12:05:00.906Z,47.90
2023-05-12T12:09:02.707Z,47.60
2023-05-12T12:12:46.398Z,49.20
2023-05-12T12:16:32.829Z,45.20
2023-05-12T12:20:18.843Z,44.80
2023-05-12T12:24:03.794Z,45.50
2023-05-12T12:27:45.909Z,43.90
2023-05-12T12:31:28.385Z,43.70
2023-05-12T12:35:11.604Z,43.60
2023-05-12T12:38:53.387Z,44.20
2023-05-12T12:42:37.233Z,44.80
2023-05-12T12:46:19.876Z,42.20
2023-05-12T12:50:01.837Z,42.70
2023-05-12T12:53:45.674Z,43.00
2023-05-12T12:57:27.688Z,43.90
2023-05-12T13:01:10.182Z,44.30
2023-05-12T13:04:52.151Z,45.00
2023-05-12T13:08:33.976Z,45.60
2023-05-12T13:12:15.907Z,47.20
2023-05-12T13:15:57.829Z,46.70
2023-05-12T13:19:40.088Z,47.50
2023-05-12T13:23:21.925Z,48.60
2023-05-12T13:27:08.228Z,49.10
2023-05-12T13:30:52.577Z,48.60
2023-05-12T13:34:34.746Z,49.00
2023-05-12T13:38:17.643Z,47.70
2023-05-12T13:42:00.188Z,46.60
2023-05-12T13:45:42.722Z,44.50
2023-05-12T13:49:24.713Z,44.70
2023-05-12T13:53:06.722Z,44.30
2023-05-12T13:56:48.721Z,45.20
2023-05-12T14:00:30.698Z,44.70
2023-05-12T14:04:12.880Z,45.80
2023-05-12T14:07:54.753Z,47.30
2023-05-12T14:11:37.067Z,48.20
2023-05-12T14:15:32.377Z,48.30
2023-05-12T14:19:18.395Z,49.60
2023-05-12T14:23:00.619Z,50.10
2023-05-12T14:26:42.526Z,49.70
2023-05-12T14:30:24.552Z,49.80
2023-05-12T14:34:06.506Z,50.50
2023-05-12T14:37:48.405Z,51.40
2023-05-12T14:41:30.245Z,52.00
2023-05-12T14:45:12.395Z,51.30
2023-05-12T14:48:54.568Z,51.40
2023-05-12T14:52:38.560Z,52.30
2023-05-12T14:56:20.667Z,52.90
2023-05-12T15:00:02.526Z,53.10
2023-05-12T15:03:44.656Z,53.20
2023-05-12T15:07:26.679Z,53.40
2023-05-12T15:11:08.579Z,52.90
2023-05-12T15:14:51.125Z,53.50
2023-05-12T15:18:33.014Z,54.00
2023-05-12T15:22:14.959Z,54.70
2023-05-12T15:25:58.112Z,54.70
2023-05-12T15:29:42.180Z,55.30
2023-05-12T15:33:25.010Z,55.70
2023-05-12T15:37:07.176Z,56.00
2023-05-12T15:40:49.313Z,56.70
2023-05-12T15:44:31.842Z,57.10
2023-05-12T15:48:13.679Z,57.10
2023-05-12T15:51:55.601Z,57.00
2023-05-12T15:55:37.540Z,57.40
2023-05-12T15:59:19.955Z,57.40
2023-05-12T16:03:02.106Z,57.30
2023-05-12T16:06:44.115Z,57.20
2023-05-12T16:10:26.095Z,57.50
2023-05-12T16:14:07.972Z,57.00
2023-05-12T16:17:49.805Z,57.60
2023-05-12T16:21:32.085Z,57.60
2023-05-12T16:25:14.457Z,58.30
2023-05-12T16:28:56.460Z,58.50
2023-05-12T16:32:38.368Z,58.20
2023-05-12T16:36:20.700Z,58.50
2023-05-12T16:40:02.568Z,58.90
2023-05-12T16:43:44.469Z,59.10
2023-05-12T16:47:26.598Z,59.30
2023-05-12T16:51:10.316Z,59.10
2023-05-12T16:54:53.205Z,59.50
2023-05-12T16:58:35.704Z,60.00
2023-05-12T17:02:17.876Z,60.60
2023-05-12T17:05:59.946Z,60.10
2023-05-12T17:09:41.893Z,60.80
2023-05-12T17:13:23.919Z,60.70
2023-05-12T17:17:06.091Z,61.00
2023-05-12T17:20:48.190Z,61.30
2023-05-12T17:24:30.502Z,61.60
2023-05-12T17:28:12.617Z,61.60
2023-05-12T17:31:55.023Z,61.70
2023-05-12T17:35:36.981Z,62.00
2023-05-12T17:39:19.149Z,62.30
2023-05-12T17:43:01.213Z,62.70
2023-05-12T17:46:43.512Z,63.30
2023-05-12T17:50:25.469Z,63.20
2023-05-12T17:54:08.052Z,63.40
2023-05-12T17:57:50.361Z,64.00
2023-05-12T18:01:32.549Z,64.10
2023-05-12T18:05:14.501Z,64.30
2023-05-12T18:08:56.710Z,63.80
2023-05-12T18:12:39.004Z,63.90
2023-05-12T18:16:28.412Z,64.20
2023-05-12T18:20:11.626Z,64.20
2023-05-12T18:23:53.523Z,64.30
2023-05-12T18:27:35.760Z,64.50
2023-05-12T18:31:20.038Z,64.80
2023-05-12T18:35:02.227Z,65.10
2023-05-12T18:38:44.301Z,65.50
2023-05-12T18:42:26.458Z,65.90
2023-05-12T18:46:08.388Z,66.00
2023-05-12T18:49:50.392Z,66.00
2023-05-12T18:53:32.979Z,65.90
2023-05-12T18:57:15.424Z,65.80
2023-05-12T19:00:58.087Z,65.60
2023-05-12T19:04:40.675Z,65.80
2023-05-12T19:08:22.916Z,66.10
2023-05-12T19:12:06.331Z,66.30
2023-05-12T19:15:48.952Z,66.70
2023-05-12T19:19:31.336Z,66.70
2023-05-12T19:23:13.641Z,67.10
2023-05-12T19:26:55.895Z,67.50
2023-05-12T19:30:37.960Z,67.60
2023-05-12T19:34:20.164Z,68.00
2023-05-12T19:38:02.024Z,68.30
2023-05-12T19:41:43.948Z,68.50
2023-05-12T19:45:25.916Z,68.80
2023-05-12T19:49:07.832Z,68.90
2023-05-12T19:52:51.253Z,69.20
2023-05-12T19:56:33.829Z,69.40
2023-05-12T20:00:16.022Z,69.20
2023-05-12T20:03:57.950Z,69.50
2023-05-12T20:07:40.267Z,69.60
2023-05-12T20:11:22.349Z,69.70
2023-05-12T20:15:04.655Z,69.90
2023-05-12T20:18:46.591Z,70.10
2023-05-12T20:22:28.512Z,70.20
2023-05-12T20:26:10.662Z,70.30
2023-05-12T20:29:52.894Z,71.30
2023-05-12T20:33:34.807Z,71.00
2023-05-12T20:37:17.378Z,70.90
2023-05-12T20:41:07.301Z,70.90
2023-05-12T20:44:49.530Z,71.00
2023-05-12T20:48:32.633Z,71.40
2023-05-12T20:52:14.660Z,71.60
2023-05-12T20:55:57.273Z,72.10
2023-05-12T20:59:42.477Z,72.40
2023-05-12T21:03:24.629Z,72.60
2023-05-12T21:07:06.840Z,72.60
2023-05-12T21:10:49.023Z,72.70
2023-05-12T21:14:30.899Z,73.00
2023-05-12T21:18:13.382Z,73.10
2023-05-12T21:21:55.347Z,73.30
2023-05-12T21:25:37.432Z,73.50
2023-05-12T21:29:19.366Z,74.00
2023-05-12T21:33:01.250Z,74.40
2023-05-12T21:36:43.168Z,74.30
2023-05-12T21:40:25.030Z,74.90
2023-05-12T21:44:08.185Z,75.10
2023-05-12T21:47:51.475Z,75.00
2023-05-12T21:51:33.489Z,75.10
2023-05-12T21:55:16.003Z,75.30
2023-05-12T21:58:57.807Z,75.30
2023-05-12T22:02:39.690Z,75.50
2023-05-12T22:06:21.528Z,75.80
2023-05-12T22:10:04.712Z,75.90
2023-05-12T22:13:46.542Z,75.90
2023-05-12T22:17:28.374Z,76.00
2023-05-12T22:21:10.855Z,76.10
2023-05-12T22:24:52.693Z,76.30
2023-05-12T22:28:34.594Z,76.80
2023-05-12T22:32:16.438Z,76.00
2023-05-12T22:36:00.030Z,76.10
2023-05-12T22:39:41.900Z,76.20
2023-05-12T22:43:23.779Z,76.30
2023-05-12T22:47:06.733Z,76.40
2023-05-12T22:50:48.625Z,76.70
2023-05-12T22:54:30.476Z,76.70
2023-05-12T22:58:12.356Z,77.10
2023-05-12T23:01:54.129Z,77.20
2023-05-12T23:05:36.011Z,77.30
2023-05-12T23:09:17.804Z,77.30
2023-05-12T23:12:59.780Z,77.40
2023-05-12T23:16:41.650Z,77.40
2023-05-12T23:20:23.697Z,77.60
2023-05-12T23:24:06.327Z,77.70
2023-05-12T23:27:48.133Z,77.60
2023-05-12T23:31:30.427Z,77.70
2023-05-12T23:35:12.298Z,77.80
2023-05-12T23:38:54.647Z,78.10
2023-05-12T23:42:36.491Z,78.10
2023-05-12T23:46:18.388Z,78.30
2023-05-12T23:50:00.301Z,78.30
2023-05-12T23:53:42.154Z,78.70
2023-05-12T23:57:24.182Z,78.90
